createdAt,value
2023-04-28T04:55:22.337Z,40.55
2023-04-28T05:00:25.946Z,43.78
2023-04-28T05:05:30.918Z,41.63
2023-04-28T05:10:35.782Z,36.45
2023-04-28T05:15:39.262Z,36.22
2023-04-28T05:20:42.679Z,38.28
2023-04-28T05:25:47.530Z,36.95
2023-04-28T05:30:51.223Z,35.60
2023-04-28T05:35:54.651Z,38.38
2023-04-28T05:40:59.577Z,39.33
2023-04-28T05:46:04.046Z,30.45
2023-04-28T05:51:07.983Z,31.67
2023-04-28T05:56:12.825Z,39.13
2023-04-28T06:01:16.864Z,34.65
2023-04-28T06:06:20.527Z,35.80
2023-04-28T06:11:25.392Z,33.33
2023-04-28T06:16:30.306Z,31.80
2023-04-28T06:21:33.880Z,32.60
2023-04-28T06:26:38.694Z,36.08
2023-04-28T06:31:42.151Z,29.08
2023-04-28T06:36:45.737Z,29.65
2023-04-28T06:41:50.536Z,32.92
2023-04-28T06:46:54.174Z,27.35
2023-04-28T06:51:57.826Z,26.35
2023-04-28T06:57:02.797Z,29.33
2023-04-28T07:02:06.300Z,28.15
2023-04-28T07:07:10.258Z,25.10
2023-04-28T07:12:15.276Z,29.70
2023-04-28T07:17:19.090Z,20.85
2023-04-28T07:22:22.832Z,22.88
2023-04-28T07:27:27.716Z,18.05
2023-04-28T07:32:31.434Z,22.55
2023-04-28T07:37:34.879Z,23.35
2023-04-28T07:42:41.196Z,27.33
2023-04-28T07:47:44.671Z,23.98
2023-04-28T07:52:48.554Z,21.27
2023-04-28T07:57:53.419Z,20.70
2023-04-28T08:02:57.782Z,21.02
2023-04-28T08:08:01.416Z,17.35
2023-04-28T08:13:06.200Z,18.23
2023-04-28T08:18:09.793Z,17.90
2023-04-28T08:23:13.255Z,19.05
2023-04-28T08:28:18.030Z,17.00
2023-04-28T08:33:21.733Z,18.13
2023-04-28T08:38:25.583Z,15.20
2023-04-28T08:43:31.165Z,12.65
2023-04-28T08:48:41.142Z,14.93
2023-04-28T08:59:05.911Z,13.90
2023-04-28T09:04:12.669Z,14.80
2023-04-28T09:09:20.304Z,14.35
2023-04-28T09:14:25.492Z,10.88
2023-04-28T09:19:36.159Z,12.30
2023-04-28T09:24:43.004Z,14.13
2023-04-28T09:29:55.491Z,12.30
2023-04-28T09:34:59.738Z,12.55
2023-04-28T09:40:09.430Z,10.68
2023-04-28T09:45:15.441Z,9.63
2023-04-28T09:50:18.955Z,11.65
2023-04-28T09:55:23.394Z,15.77
2023-04-28T10:00:29.326Z,9.90
2023-04-28T10:05:33.869Z,15.18
2023-04-28T10:10:39.327Z,11.32
2023-04-28T10:15:44.768Z,11.02
2023-04-28T10:20:51.140Z,10.43
2023-04-28T10:25:59.792Z,8.93
2023-04-28T10:31:14.872Z,9.73
2023-04-28T10:36:50.878Z,8.77
2023-04-28T10:41:54.462Z,9.98
2023-04-28T10:47:03.916Z,8.05
2023-04-28T10:52:51.986Z,8.98
2023-04-28T10:58:28.430Z,9.70
2023-04-28T11:03:51.757Z,9.60
2023-04-28T11:08:57.574Z,9.77
2023-04-28T11:14:32.741Z,8.95
2023-04-28T11:19:39.072Z,8.63
2023-04-28T11:24:42.936Z,7.22
2023-04-28T11:29:49.192Z,8.32
2023-04-28T11:34:54.274Z,8.48
2023-04-28T11:39:58.682Z,7.88
2023-04-28T11:45:03.741Z,9.48
2023-04-28T11:50:09.485Z,8.27
2023-04-28T11:55:18.463Z,7.97
2023-04-28T12:00:23.466Z,7.07
2023-04-28T12:05:28.309Z,9.88
2023-04-28T12:10:31.901Z,6.95
2023-04-28T12:15:42.154Z,6.57
2023-04-28T12:20:47.035Z,8.70
2023-04-28T12:25:50.467Z,7.68
2023-04-28T12:31:05.458Z,7.03
2023-04-28T12:36:10.260Z,9.50
2023-04-28T12:41:13.687Z,9.10
2023-04-28T12:46:17.194Z,8.65
2023-04-28T12:51:22.062Z,12.15
2023-04-28T12:56:25.421Z,7.55
2023-04-28T13:01:29.730Z,6.45
2023-04-28T13:06:35.307Z,5.18
2023-04-28T13:11:38.834Z,6.18
2023-04-28T13:16:42.458Z,5.47
2023-04-28T13:21:48.010Z,4.88
2023-04-28T13:26:52.556Z,6.97
2023-04-28T13:31:56.032Z,7.53
2023-04-28T13:37:01.271Z,5.38
2023-04-28T13:42:05.979Z,6.90
2023-04-28T13:47:10.929Z,3.13
2023-04-28T13:52:16.314Z,4.97
2023-04-28T13:57:19.708Z,8.25
2023-04-28T14:02:23.565Z,5.93
2023-04-28T14:07:29.352Z,4.47
2023-04-28T14:12:32.756Z,12.40
2023-04-28T14:17:36.927Z,8.07
2023-04-28T14:22:42.093Z,4.82
2023-04-28T14:27:46.522Z,6.10
2023-04-28T14:32:50.070Z,3.63
2023-04-28T14:37:54.961Z,10.70
2023-04-28T14:42:58.885Z,5.55
2023-04-28T14:48:03.405Z,11.98
2023-04-28T14:53:08.351Z,7.05
2023-04-28T14:58:12.328Z,8.35
2023-04-28T15:03:16.287Z,4.75
2023-04-28T15:08:21.100Z,5.88
2023-04-28T15:13:27.896Z,9.27
2023-04-28T15:18:31.592Z,4.25
2023-04-28T15:23:36.490Z,4.30
2023-04-28T15:28:40.040Z,4.93
2023-04-28T15:33:43.615Z,3.67
2023-04-28T15:38:49.036Z,4.82
2023-04-28T15:43:52.492Z,8.38
2023-04-28T15:48:56.142Z,5.82
2023-04-28T15:54:01.208Z,3.53
2023-04-28T15:59:04.838Z,5.03
2023-04-28T16:04:08.656Z,5.20
2023-04-28T16:09:13.740Z,5.38
2023-04-28T16:14:17.688Z,5.57
2023-04-28T16:19:21.688Z,10.20
2023-04-28T16:24:27.056Z,5.25
2023-04-28T16:29:31.258Z,8.57
2023-04-28T16:34:34.832Z,6.97
2023-04-28T16:39:40.222Z,8.85
2023-04-28T16:44:44.294Z,5.50
2023-04-28T16:49:47.941Z,15.57
2023-04-28T16:54:53.047Z,7.82
2023-04-28T16:59:56.915Z,11.25
2023-04-28T17:05:00.809Z,9.63
2023-04-28T17:10:07.212Z,7.60
2023-04-28T17:15:16.959Z,8.68
2023-04-28T17:20:21.585Z,8.95
2023-04-28T17:25:26.398Z,7.55
2023-04-28T17:30:29.844Z,5.85
2023-04-28T17:35:33.333Z,6.95
2023-04-28T17:40:38.239Z,5.57
2023-04-28T17:45:41.714Z,5.07
2023-04-28T17:50:45.126Z,7.55
2023-04-28T17:55:50.253Z,8.32
2023-04-28T18:01:00.985Z,7.95
2023-04-28T18:06:08.240Z,8.18
2023-04-28T18:11:13.401Z,6.63
2023-04-28T18:16:16.946Z,9.10
2023-04-28T18:21:20.546Z,7.80
2023-04-28T18:26:26.551Z,10.50
2023-04-28T18:31:30.169Z,8.10
2023-04-28T18:36:36.549Z,6.65
2023-04-28T18:41:41.439Z,6.63
2023-04-28T18:46:45.236Z,13.48
2023-04-28T18:51:48.748Z,12.70
2023-04-28T18:56:53.822Z,22.17
2023-04-28T19:01:58.400Z,14.18
